Airfield :
LOGIN :

Register | Disclaimer

   EN    FR    IT 

 










Legend :    VFR   Marginal VFR   IFR   Intensive IFR   Very Intensive IFR
Visi :
Ceiling :
>= 8 km
>= 3000ft
5 to 8 km
1000 to 3000 ft
1500m to 5 km
500 to 1000 ft
800 to 1500m
200 to 500 ft
< 800m
< 200 ft
Symbols :   Thunderstorms  Fog  Heavy snow  Heavy precipitations  Wind > 20 kt
SIGMETs :     Misc.  Thunderstorms  Icing  Turbulence  Mountain Waves  Volcanic Ashes







- Airport Elevation : 268 ft
- IATA code : BFS
- Download approach charts


EGAA - Belfast Aldergrove

CURRENT METAR :
  • 161250Z 17006KT 120V210 9999 FEW034 BKN045 14/07 Q1008

EXPIRED METARs :
  • 161220Z 19007KT 150V220 9999 FEW032 SCT047 14/07 Q1008
  • 161150Z 18007KT 140V240 9999 SCT031 BKN046 15/07 Q1008
  • 161120Z 17005KT 120V230 9999 SCT030 14/07 Q1008
  • 161050Z 18008KT 140V220 9999 SCT034 15/07 Q1008
  • 161020Z 18007KT 130V240 9999 SCT027 15/08 Q1008

TAF TAF EGAA
Valid from the 16 at 12:00 until the 17 at 12:00 UTC


161055Z 1612/1712 19011KT 9999 SCT035
TEMPO 1612/1624 6000 SHRA
PROB40
TEMPO 1616/1622 15015G25KT 3000 +SHRA +TSRA BKN011 BKN020CB
PROB30
TEMPO 1700/1708 BKN011
TEMPO 1709/1712 7000 SHRA
PROB30
TEMPO 1711/1712 4000 +SHRA
No reported NOTAMs for that airfield.



MET'MAP, your aeronautical weather chart ! - Copyright ORBIFLY December 2007 - Disclaimer

ORBIFLY MET'MAP TEAM :

Programming & Development : Alexandra Zaïnal
Concept & Development : Baudouin d'Aumeries
Co-Development & Prog : Marc-Olivier Méhu
Technical & hardware support : Manuel Goepfert

Contact : metmap@orbifly.com




SOURCES & CREDITS :

   NOAA